createdAt,value
2023-03-24T00:01:06.477Z,7.60
2023-03-24T00:03:38.429Z,7.60
2023-03-24T00:06:13.882Z,7.60
2023-03-24T00:08:47.957Z,7.60
2023-03-24T00:11:21.919Z,7.60
2023-03-24T00:13:53.776Z,7.60
2023-03-24T00:16:28.027Z,7.50
2023-03-24T00:19:02.206Z,7.50
2023-03-24T00:21:34.080Z,7.40
2023-03-24T00:24:08.078Z,7.40
2023-03-24T00:26:43.336Z,7.40
2023-03-24T00:29:15.191Z,7.30
2023-03-24T00:31:47.450Z,7.20
2023-03-24T00:34:23.257Z,7.20
2023-03-24T00:36:55.135Z,7.10
2023-03-24T00:39:26.982Z,7.10
2023-03-24T00:41:59.678Z,7.10
2023-03-24T00:44:31.536Z,7.00
2023-03-24T00:47:04.159Z,7.00
2023-03-24T00:49:45.288Z,7.00
2023-03-24T00:52:20.770Z,6.90
2023-03-24T00:54:55.375Z,6.80
2023-03-24T00:57:30.046Z,6.80
2023-03-24T01:00:17.071Z,6.70
2023-03-24T01:02:53.989Z,6.70
2023-03-24T01:05:28.293Z,6.60
2023-03-24T01:08:03.866Z,6.50
2023-03-24T01:10:50.530Z,6.50
2023-03-24T01:13:24.322Z,6.50
2023-03-24T01:15:56.777Z,6.50
2023-03-24T01:18:28.651Z,6.50
2023-03-24T01:21:01.443Z,6.50
2023-03-24T01:23:36.172Z,6.40
2023-03-24T01:26:09.393Z,6.40
2023-03-24T01:28:43.861Z,6.30
2023-03-24T01:31:16.238Z,6.30
2023-03-24T01:33:48.211Z,6.30
2023-03-24T01:36:20.100Z,6.40
2023-03-24T01:38:52.080Z,6.40
2023-03-24T01:41:24.297Z,6.40
2023-03-24T01:43:56.180Z,6.40
2023-03-24T01:46:29.907Z,6.40
2023-03-24T01:49:04.968Z,6.40
2023-03-24T01:51:38.972Z,6.40
2023-03-24T01:54:19.258Z,6.40
2023-03-24T01:56:52.913Z,6.40
2023-03-24T01:59:27.408Z,6.30
2023-03-24T02:02:03.348Z,6.20
2023-03-24T02:04:42.806Z,6.20
2023-03-24T02:07:34.054Z,6.10
2023-03-24T02:10:07.847Z,6.10
2023-03-24T02:12:41.822Z,6.00
2023-03-24T02:15:14.664Z,6.10
2023-03-24T02:18:06.312Z,6.10
2023-03-24T02:20:44.534Z,6.10
2023-03-24T02:23:22.581Z,6.10
2023-03-24T02:25:57.662Z,6.10
2023-03-24T02:28:38.618Z,6.10
2023-03-24T02:31:29.323Z,6.10
2023-03-24T02:34:20.046Z,6.20
2023-03-24T02:37:02.260Z,6.20
2023-03-24T02:39:38.250Z,6.20
2023-03-24T02:42:10.068Z,6.20
2023-03-24T02:45:08.391Z,6.20
2023-03-24T02:47:52.786Z,6.30
2023-03-24T02:50:33.812Z,6.20
2023-03-24T02:53:09.019Z,6.20
2023-03-24T02:55:53.188Z,6.10
2023-03-24T02:58:43.703Z,6.10
2023-03-24T03:01:21.154Z,6.00
2023-03-24T03:03:54.484Z,6.10
2023-03-24T03:06:28.137Z,6.10
2023-03-24T03:09:03.115Z,6.10
2023-03-24T03:11:35.683Z,6.10
2023-03-24T03:14:11.075Z,6.20
2023-03-24T03:16:46.882Z,6.30
2023-03-24T03:19:20.946Z,6.30
2023-03-24T03:21:53.158Z,6.40
2023-03-24T03:24:30.755Z,6.50
2023-03-24T03:27:05.733Z,6.50
2023-03-24T03:29:40.081Z,6.50
2023-03-24T03:32:13.860Z,6.60
2023-03-24T03:34:51.312Z,6.60
2023-03-24T03:37:28.179Z,6.60
2023-03-24T03:40:05.144Z,6.60
2023-03-24T03:42:36.941Z,6.70
2023-03-24T03:45:10.138Z,6.70
2023-03-24T03:47:44.542Z,6.70
2023-03-24T03:50:16.519Z,6.70
2023-03-24T03:52:48.388Z,6.80
2023-03-24T03:55:20.372Z,6.80
2023-03-24T03:57:52.537Z,6.80
2023-03-24T04:00:26.338Z,6.80
2023-03-24T04:02:58.349Z,6.80
2023-03-24T04:05:30.141Z,6.80
2023-03-24T04:08:04.331Z,6.90
2023-03-24T04:10:54.765Z,6.90
2023-03-24T04:13:26.563Z,6.90
2023-03-24T04:16:04.911Z,6.90
2023-03-24T04:18:45.683Z,6.90
2023-03-24T04:21:20.499Z,6.90
2023-03-24T04:24:15.193Z,6.90
2023-03-24T04:26:54.751Z,6.90
2023-03-24T04:29:30.092Z,6.90
2023-03-24T04:32:11.461Z,6.90
2023-03-24T04:34:46.332Z,6.90
2023-03-24T04:37:19.725Z,7.00
2023-03-24T04:39:54.044Z,7.00
2023-03-24T04:42:27.812Z,7.00
2023-03-24T04:45:03.113Z,7.00
2023-03-24T04:47:39.458Z,7.00
2023-03-24T04:50:12.935Z,7.00
2023-03-24T04:52:44.720Z,7.10
2023-03-24T04:55:37.822Z,7.10
2023-03-24T04:58:09.816Z,7.10
2023-03-24T05:00:44.375Z,7.20
2023-03-24T05:03:16.735Z,7.20
2023-03-24T05:05:49.421Z,7.20
2023-03-24T05:08:21.281Z,7.30
2023-03-24T05:10:53.040Z,7.30
2023-03-24T05:13:27.484Z,7.40
2023-03-24T05:15:59.291Z,7.40
2023-03-24T05:18:31.221Z,7.40
2023-03-24T05:21:03.035Z,7.50
2023-03-24T05:23:35.143Z,7.50
2023-03-24T05:26:09.306Z,7.50
2023-03-24T05:28:41.391Z,7.50
2023-03-24T05:31:13.191Z,7.50
2023-03-24T05:33:45.646Z,7.60
2023-03-24T05:36:17.512Z,7.60
2023-03-24T05:38:49.328Z,7.60
2023-03-24T05:41:21.083Z,7.70
2023-03-24T05:43:52.932Z,7.70
2023-03-24T05:46:26.440Z,7.80
2023-03-24T05:48:58.572Z,7.90
2023-03-24T05:51:30.339Z,7.90
2023-03-24T05:54:02.302Z,8.00
2023-03-24T05:56:34.144Z,8.10
2023-03-24T05:59:05.989Z,8.20
2023-03-24T06:01:37.757Z,8.30
2023-03-24T06:04:09.680Z,8.40
2023-03-24T06:06:41.495Z,8.40
2023-03-24T06:09:15.322Z,8.50
2023-03-24T06:11:49.631Z,8.50
2023-03-24T06:14:21.489Z,8.60
2023-03-24T06:16:53.344Z,8.50
2023-03-24T06:19:30.963Z,8.60
2023-03-24T06:22:03.295Z,8.60
2023-03-24T06:24:35.124Z,8.60
2023-03-24T06:27:09.092Z,8.60
2023-03-24T06:29:42.591Z,8.60
2023-03-24T06:32:14.362Z,8.60
2023-03-24T06:34:46.267Z,8.70
2023-03-24T06:37:18.084Z,8.70
2023-03-24T06:39:50.057Z,8.80
2023-03-24T06:42:21.872Z,8.80
2023-03-24T06:44:53.706Z,8.80
2023-03-24T06:47:25.755Z,8.80
2023-03-24T06:49:57.575Z,8.90
2023-03-24T06:52:31.648Z,9.00
2023-03-24T06:55:03.687Z,9.10
2023-03-24T06:57:35.460Z,9.20
2023-03-24T07:00:09.041Z,9.20
2023-03-24T07:02:42.888Z,9.30
2023-03-24T07:05:14.938Z,9.40
2023-03-24T07:10:21.968Z,9.70
2023-03-24T07:12:53.811Z,9.80
2023-03-24T07:15:25.764Z,9.90
2023-03-24T07:17:59.902Z,10.00
2023-03-24T07:20:32.092Z,10.10
2023-03-24T07:23:06.206Z,10.20
2023-03-24T07:25:42.144Z,10.40
2023-03-24T07:28:13.950Z,10.60
2023-03-24T07:30:48.087Z,10.80
2023-03-24T07:33:19.962Z,10.90
2023-03-24T07:35:57.812Z,11.10
2023-03-24T07:38:29.684Z,11.30
2023-03-24T07:41:04.314Z,11.40
2023-03-24T07:43:36.222Z,11.60
2023-03-24T07:46:09.199Z,11.70
2023-03-24T07:48:42.656Z,11.70
2023-03-24T07:51:20.026Z,11.80
2023-03-24T07:53:52.322Z,11.80
2023-03-24T07:56:24.322Z,11.80
2023-03-24T07:58:58.535Z,11.80
2023-03-24T08:01:30.575Z,11.70
2023-03-24T08:04:03.459Z,11.80
2023-03-24T08:06:35.563Z,11.80
2023-03-24T08:09:07.350Z,11.80
2023-03-24T08:11:39.486Z,11.90
2023-03-24T08:14:11.294Z,11.90
2023-03-24T08:16:46.117Z,11.90
2023-03-24T08:19:17.906Z,11.90
2023-03-24T08:21:49.765Z,11.80
2023-03-24T08:24:21.579Z,11.80
2023-03-24T08:26:58.803Z,11.80
2023-03-24T08:29:30.744Z,11.80
2023-03-24T08:32:02.605Z,11.80
2023-03-24T08:34:34.355Z,11.80
2023-03-24T08:37:06.195Z,11.80
2023-03-24T08:39:37.944Z,11.80
2023-03-24T08:42:09.783Z,11.80
2023-03-24T08:44:42.382Z,11.80
2023-03-24T08:47:14.212Z,11.80
2023-03-24T08:49:46.002Z,11.80
2023-03-24T08:52:18.239Z,11.90
2023-03-24T08:54:50.592Z,12.00
2023-03-24T08:57:22.468Z,12.00
2023-03-24T08:59:54.380Z,12.00
2023-03-24T09:02:26.332Z,12.00
2023-03-24T09:04:58.204Z,12.10
2023-03-24T09:07:30.036Z,12.20
2023-03-24T09:10:04.998Z,12.10
2023-03-24T09:12:37.660Z,12.10
2023-03-24T09:15:11.758Z,12.00
2023-03-24T09:17:45.120Z,11.90
2023-03-24T09:20:18.629Z,11.80
2023-03-24T09:22:50.679Z,11.70
2023-03-24T09:25:23.246Z,11.70
2023-03-24T09:27:57.624Z,11.70
2023-03-24T09:30:30.948Z,11.80
2023-03-24T09:33:06.519Z,11.90
2023-03-24T09:35:38.445Z,12.10
2023-03-24T09:38:12.391Z,12.20
2023-03-24T09:40:49.177Z,12.40
2023-03-24T09:43:39.842Z,12.50
2023-03-24T09:46:14.311Z,12.70
2023-03-24T09:48:49.588Z,13.00
2023-03-24T09:51:30.538Z,13.10
2023-03-24T09:54:09.541Z,13.30
2023-03-24T09:56:44.183Z,13.50
2023-03-24T09:59:20.409Z,13.50
2023-03-24T10:01:56.779Z,13.60
2023-03-24T10:04:29.243Z,13.70
2023-03-24T10:07:24.328Z,13.90
2023-03-24T10:09:59.939Z,13.90
2023-03-24T10:12:39.306Z,14.10
2023-03-24T10:15:30.981Z,14.20
2023-03-24T10:18:12.485Z,14.30
2023-03-24T10:20:47.256Z,14.30
2023-03-24T10:23:25.398Z,14.10
2023-03-24T10:26:03.259Z,14.00
2023-03-24T10:28:41.503Z,13.90
2023-03-24T10:31:14.645Z,14.00
2023-03-24T10:33:47.513Z,14.10
2023-03-24T10:36:20.900Z,14.10
2023-03-24T10:38:52.707Z,14.20
2023-03-24T10:41:25.691Z,14.20
2023-03-24T10:43:58.120Z,14.10
2023-03-24T10:46:33.233Z,14.30
2023-03-24T10:49:09.075Z,14.40
2023-03-24T10:51:46.601Z,14.40
2023-03-24T10:54:23.243Z,14.40
2023-03-24T10:57:00.835Z,14.30
2023-03-24T10:59:48.757Z,14.30
2023-03-24T11:02:30.806Z,14.30
2023-03-24T11:05:15.556Z,14.30
2023-03-24T11:07:48.990Z,14.40
2023-03-24T11:10:27.401Z,14.30
2023-03-24T11:13:04.105Z,14.30
2023-03-24T11:15:37.436Z,14.30
2023-03-24T11:18:12.026Z,14.30
2023-03-24T11:20:45.538Z,14.30
2023-03-24T11:23:21.704Z,14.30
2023-03-24T11:26:02.400Z,14.30
2023-03-24T11:28:39.251Z,14.30
2023-03-24T11:31:19.241Z,14.40
2023-03-24T11:33:57.305Z,14.50
2023-03-24T11:36:30.434Z,14.60
2023-03-24T11:39:10.753Z,14.70
2023-03-24T11:41:44.302Z,14.80
2023-03-24T11:44:16.133Z,14.80
2023-03-24T11:46:50.576Z,14.80
2023-03-24T11:49:26.268Z,14.70
2023-03-24T11:51:58.242Z,14.70
2023-03-24T11:54:34.430Z,14.60
2023-03-24T11:57:13.951Z,14.50
2023-03-24T11:59:45.789Z,14.60
2023-03-24T12:02:23.668Z,14.60
2023-03-24T12:05:14.083Z,14.60
2023-03-24T12:08:03.482Z,14.60
2023-03-24T12:10:45.055Z,14.50
2023-03-24T12:13:32.489Z,14.50
2023-03-24T12:16:17.333Z,14.40
2023-03-24T12:18:58.099Z,14.40
2023-03-24T12:21:48.662Z,14.40
2023-03-24T12:24:23.419Z,14.40
2023-03-24T12:26:59.429Z,14.30
2023-03-24T12:29:39.857Z,14.40
2023-03-24T12:32:11.623Z,14.40
2023-03-24T12:35:02.788Z,14.30
2023-03-24T12:37:37.411Z,14.20
2023-03-24T12:40:13.022Z,14.20
2023-03-24T12:42:47.781Z,14.10
2023-03-24T12:45:38.740Z,14.10
2023-03-24T12:48:13.716Z,14.00
2023-03-24T12:51:04.406Z,14.00
2023-03-24T12:53:41.999Z,13.90
2023-03-24T12:56:18.476Z,13.90
2023-03-24T12:58:53.000Z,13.90
2023-03-24T13:01:45.640Z,13.90
2023-03-24T13:04:21.251Z,13.90
2023-03-24T13:06:56.755Z,13.80
2023-03-24T13:09:41.760Z,13.80
2023-03-24T13:12:15.379Z,13.80
2023-03-24T13:14:53.379Z,13.70
2023-03-24T13:17:29.557Z,13.70
2023-03-24T13:20:02.332Z,13.70
2023-03-24T13:22:34.418Z,13.70
2023-03-24T13:25:10.631Z,13.70
2023-03-24T13:27:44.409Z,13.60
2023-03-24T13:30:19.113Z,13.60
2023-03-24T13:32:58.908Z,13.50
2023-03-24T13:35:39.713Z,13.50
2023-03-24T13:38:30.410Z,13.40
2023-03-24T13:41:04.769Z,13.40
2023-03-24T13:43:46.622Z,13.40
2023-03-24T13:46:18.795Z,13.40
2023-03-24T13:48:54.998Z,13.30
2023-03-24T13:51:34.433Z,13.20
2023-03-24T13:54:26.853Z,13.10
2023-03-24T13:57:07.306Z,13.10
2023-03-24T13:59:39.077Z,13.10
2023-03-24T14:02:17.045Z,13.10
2023-03-24T14:05:01.223Z,13.10
2023-03-24T14:07:41.893Z,13.10
2023-03-24T14:10:16.666Z,13.20
2023-03-24T14:13:01.883Z,13.20
2023-03-24T14:15:49.118Z,13.30
2023-03-24T14:18:24.372Z,13.30
2023-03-24T14:20:56.626Z,13.40
2023-03-24T14:23:45.965Z,13.30
2023-03-24T14:26:21.038Z,13.30
2023-03-24T14:28:53.591Z,13.20
2023-03-24T14:31:29.145Z,13.20
2023-03-24T14:34:15.170Z,13.20
2023-03-24T14:36:57.084Z,13.10
2023-03-24T14:39:35.792Z,13.10
2023-03-24T14:42:26.125Z,13.10
2023-03-24T14:44:59.518Z,13.10
2023-03-24T14:47:32.221Z,13.10
2023-03-24T14:50:18.685Z,13.10
2023-03-24T14:52:52.826Z,13.20
2023-03-24T14:55:25.702Z,13.20
2023-03-24T14:58:02.517Z,13.20
2023-03-24T15:01:03.908Z,13.30
2023-03-24T15:03:53.638Z,13.40
2023-03-24T15:06:25.577Z,13.50
2023-03-24T15:09:10.350Z,13.60
2023-03-24T15:11:43.199Z,13.70
2023-03-24T15:14:25.409Z,13.90
2023-03-24T15:16:58.772Z,14.00
2023-03-24T15:19:31.089Z,14.20
2023-03-24T15:22:10.543Z,14.20
2023-03-24T15:24:42.744Z,14.10
2023-03-24T15:27:17.441Z,14.00
2023-03-24T15:29:54.081Z,13.90
2023-03-24T15:32:27.525Z,13.80
2023-03-24T15:35:02.699Z,13.70
2023-03-24T15:37:34.574Z,13.70
2023-03-24T15:40:15.815Z,13.60
2023-03-24T15:42:50.565Z,13.50
2023-03-24T15:45:25.236Z,13.40
2023-03-24T15:47:58.028Z,13.40
2023-03-24T15:50:32.463Z,13.30
2023-03-24T15:53:22.219Z,13.20
2023-03-24T15:56:12.202Z,13.20
2023-03-24T15:58:51.834Z,12.40
2023-03-24T16:01:27.820Z,11.60
2023-03-24T16:04:00.833Z,11.10
2023-03-24T16:06:43.154Z,10.80
2023-03-24T16:09:16.644Z,10.60
2023-03-24T16:11:48.792Z,10.40
2023-03-24T16:14:22.316Z,10.20
2023-03-24T16:16:55.142Z,10.10
2023-03-24T16:19:27.004Z,10.10
2023-03-24T16:21:58.849Z,10.00
2023-03-24T16:24:30.730Z,10.00
2023-03-24T16:27:02.671Z,10.00
2023-03-24T16:29:34.584Z,9.90
2023-03-24T16:32:07.035Z,10.00
2023-03-24T16:34:38.915Z,9.90
2023-03-24T16:37:10.728Z,9.90
2023-03-24T16:39:42.622Z,9.90
2023-03-24T16:42:15.110Z,10.00
2023-03-24T16:44:49.444Z,9.90
2023-03-24T16:47:21.480Z,9.90
2023-03-24T16:49:53.300Z,9.80
2023-03-24T16:52:25.285Z,9.80
2023-03-24T16:54:57.138Z,9.80
2023-03-24T16:57:28.927Z,9.80
2023-03-24T17:00:02.172Z,9.80
2023-03-24T17:02:35.166Z,9.70
2023-03-24T17:05:18.818Z,9.70
2023-03-24T17:07:51.685Z,9.60
2023-03-24T17:10:24.613Z,9.60
2023-03-24T17:12:56.675Z,9.60
2023-03-24T17:15:29.878Z,9.60
2023-03-24T17:18:02.928Z,9.50
2023-03-24T17:20:35.145Z,9.50
2023-03-24T17:23:11.530Z,9.50
2023-03-24T17:25:43.446Z,9.50
2023-03-24T17:28:18.344Z,9.40
2023-03-24T17:30:50.869Z,9.40
2023-03-24T17:33:22.941Z,9.40
2023-03-24T17:35:54.807Z,9.40
2023-03-24T17:38:27.137Z,9.30
2023-03-24T17:41:00.326Z,9.30
2023-03-24T17:43:32.916Z,9.20
2023-03-24T17:46:04.934Z,9.20
2023-03-24T17:48:37.283Z,9.20
2023-03-24T17:51:11.377Z,9.20
2023-03-24T17:53:45.251Z,9.20
2023-03-24T17:56:19.473Z,9.20
2023-03-24T17:58:54.864Z,9.10
2023-03-24T18:01:29.688Z,9.20
2023-03-24T18:04:04.331Z,9.10
2023-03-24T18:06:38.764Z,9.10
2023-03-24T18:09:10.693Z,9.10
2023-03-24T18:11:42.757Z,9.10
2023-03-24T18:14:14.896Z,9.10
2023-03-24T18:16:46.761Z,9.00
2023-03-24T18:19:19.021Z,9.00
2023-03-24T18:21:51.051Z,9.00
2023-03-24T18:24:25.282Z,9.00
2023-03-24T18:26:59.218Z,8.90
2023-03-24T18:29:31.660Z,8.90
2023-03-24T18:32:04.572Z,8.90
2023-03-24T18:34:39.397Z,8.90
2023-03-24T18:37:15.521Z,8.80
2023-03-24T18:39:49.865Z,8.80
2023-03-24T18:42:21.775Z,8.80
2023-03-24T18:44:53.614Z,8.80
2023-03-24T18:47:25.495Z,8.70
2023-03-24T18:49:57.366Z,8.70
2023-03-24T18:52:29.225Z,8.70
2023-03-24T18:55:03.426Z,8.70
2023-03-24T18:57:35.545Z,8.70
2023-03-24T19:00:10.190Z,8.70
2023-03-24T19:02:42.053Z,8.60
2023-03-24T19:05:15.374Z,8.60
2023-03-24T19:07:52.169Z,8.50
2023-03-24T19:10:26.513Z,8.50
2023-03-24T19:12:58.333Z,8.40
2023-03-24T19:15:35.495Z,8.40
2023-03-24T19:18:07.663Z,8.30
2023-03-24T19:20:40.206Z,8.30
2023-03-24T19:23:12.101Z,8.20
2023-03-24T19:25:43.977Z,8.20
2023-03-24T19:28:16.715Z,8.20
2023-03-24T19:30:48.598Z,8.10
2023-03-24T19:33:20.990Z,8.10
2023-03-24T19:35:53.513Z,8.00
2023-03-24T19:38:25.708Z,8.00
2023-03-24T19:40:57.871Z,8.00
2023-03-24T19:43:34.021Z,8.00
2023-03-24T19:46:08.444Z,8.00
2023-03-24T19:48:40.762Z,8.00
2023-03-24T19:51:12.650Z,8.00
2023-03-24T19:53:44.753Z,7.90
2023-03-24T19:56:18.289Z,7.90
2023-03-24T19:58:50.152Z,7.90
2023-03-24T20:01:23.841Z,7.80
2023-03-24T20:03:55.920Z,7.80
2023-03-24T20:06:30.517Z,7.70
2023-03-24T20:09:02.662Z,7.70
2023-03-24T20:11:34.429Z,7.70
2023-03-24T20:14:08.604Z,7.70
2023-03-24T20:16:40.407Z,7.60
2023-03-24T20:19:12.292Z,7.60
2023-03-24T20:21:44.369Z,7.60
2023-03-24T20:24:16.287Z,7.60
2023-03-24T20:26:48.488Z,7.50
2023-03-24T20:29:20.443Z,7.50
2023-03-24T20:31:52.476Z,7.40
2023-03-24T20:34:24.435Z,7.40
2023-03-24T20:36:56.271Z,7.40
2023-03-24T20:39:31.490Z,7.40
2023-03-24T20:42:03.520Z,7.30
2023-03-24T20:44:35.476Z,7.30
2023-03-24T20:47:07.344Z,7.30
2023-03-24T20:49:41.697Z,7.30
2023-03-24T20:52:15.003Z,7.30
2023-03-24T20:54:46.802Z,7.30
2023-03-24T20:57:19.344Z,7.20
2023-03-24T20:59:52.231Z,7.20
2023-03-24T21:02:24.603Z,7.20
2023-03-24T21:04:56.581Z,7.20
2023-03-24T21:07:28.337Z,7.10
2023-03-24T21:10:00.504Z,7.10
2023-03-24T21:12:32.476Z,7.20
2023-03-24T21:15:05.359Z,7.10
2023-03-24T21:17:37.205Z,7.10
2023-03-24T21:20:12.792Z,7.10
2023-03-24T21:22:53.666Z,7.10
2023-03-24T21:25:27.135Z,7.10
2023-03-24T21:28:00.147Z,7.10
2023-03-24T21:30:32.191Z,7.10
2023-03-24T21:33:06.494Z,7.10
2023-03-24T21:35:38.569Z,7.10
2023-03-24T21:38:10.361Z,7.10
2023-03-24T21:40:42.574Z,7.10
2023-03-24T21:43:14.870Z,7.10
2023-03-24T21:45:46.845Z,7.10
2023-03-24T21:48:21.079Z,7.10
2023-03-24T21:50:53.850Z,7.10
2023-03-24T21:53:28.384Z,7.00
2023-03-24T21:56:06.327Z,7.00
2023-03-24T21:58:40.855Z,7.00
2023-03-24T22:01:12.772Z,7.00
2023-03-24T22:03:46.638Z,6.90
2023-03-24T22:06:18.611Z,6.90
2023-03-24T22:08:53.198Z,6.80
2023-03-24T22:11:27.575Z,6.80
2023-03-24T22:13:59.371Z,6.80
2023-03-24T22:16:33.208Z,6.70
2023-03-24T22:19:05.315Z,6.70
2023-03-24T22:21:42.833Z,6.70
2023-03-24T22:24:14.658Z,6.60
2023-03-24T22:26:48.791Z,6.60
2023-03-24T22:29:21.105Z,6.60
2023-03-24T22:31:53.065Z,6.50
2023-03-24T22:34:24.982Z,6.50
2023-03-24T22:36:56.870Z,6.50
2023-03-24T22:39:28.643Z,6.50
2023-03-24T22:42:01.248Z,6.50
2023-03-24T22:44:33.909Z,6.60
2023-03-24T22:47:05.835Z,6.60
2023-03-24T22:49:38.003Z,6.60
2023-03-24T22:52:12.283Z,6.60
2023-03-24T22:54:44.714Z,6.60
2023-03-24T22:57:18.791Z,6.50
2023-03-24T22:59:50.739Z,6.50
2023-03-24T23:02:24.800Z,6.50
2023-03-24T23:04:56.802Z,6.50
2023-03-24T23:07:28.931Z,6.50
2023-03-24T23:10:00.849Z,6.50
2023-03-24T23:12:32.743Z,6.50
2023-03-24T23:15:05.682Z,6.50
2023-03-24T23:17:37.910Z,6.50
2023-03-24T23:20:10.856Z,6.40
2023-03-24T23:22:43.083Z,6.40
2023-03-24T23:25:15.687Z,6.40
2023-03-24T23:27:47.944Z,6.40
2023-03-24T23:30:22.085Z,6.30
2023-03-24T23:32:54.038Z,6.30
2023-03-24T23:35:25.881Z,6.30
2023-03-24T23:37:57.726Z,6.40
2023-03-24T23:40:29.626Z,6.30
2023-03-24T23:43:02.103Z,6.30
2023-03-24T23:45:33.964Z,6.30
2023-03-24T23:48:06.420Z,6.30
2023-03-24T23:50:38.302Z,6.30
2023-03-24T23:53:10.132Z,6.20
2023-03-24T23:55:41.894Z,6.20
2023-03-24T23:58:14.570Z,6.20
